sensor_id;sensor_type;location;lat;lon;timestamp;pressure;altitude;pressure_sealevel;temperature;humidity
50226;BME280;36113;50.742;6.432;2023-05-01T00:00:07;112741.81;;;-145.50;87.83
50226;BME280;36113;50.742;6.432;2023-05-01T00:02:33;112741.81;;;-145.50;88.04
50226;BME280;36113;50.742;6.432;2023-05-01T00:04:58;112741.81;;;-145.50;88.01
50226;BME280;36113;50.742;6.432;2023-05-01T00:07:23;112741.81;;;-145.50;88.05
50226;BME280;36113;50.742;6.432;2023-05-01T00:09:50;112741.81;;;-145.50;88.48
50226;BME280;36113;50.742;6.432;2023-05-01T00:12:15;112741.81;;;-145.50;88.57
50226;BME280;36113;50.742;6.432;2023-05-01T00:14:41;112741.81;;;-145.50;88.35
50226;BME280;36113;50.742;6.432;2023-05-01T00:17:06;112741.81;;;-145.50;88.33
50226;BME280;36113;50.742;6.432;2023-05-01T00:19:32;112741.81;;;-145.50;88.34
50226;BME280;36113;50.742;6.432;2023-05-01T00:21:57;112741.81;;;-145.50;87.88
50226;BME280;36113;50.742;6.432;2023-05-01T00:24:22;112741.81;;;-145.50;88.08
50226;BME280;36113;50.742;6.432;2023-05-01T00:26:48;112741.81;;;-145.50;88.29
50226;BME280;36113;50.742;6.432;2023-05-01T00:29:13;112741.81;;;-145.50;88.44
50226;BME280;36113;50.742;6.432;2023-05-01T00:31:39;112741.81;;;-145.50;88.13
50226;BME280;36113;50.742;6.432;2023-05-01T00:34:06;112741.81;;;-145.50;88.46
50226;BME280;36113;50.742;6.432;2023-05-01T00:36:31;112741.81;;;-145.50;88.33
50226;BME280;36113;50.742;6.432;2023-05-01T00:38:56;112741.81;;;-145.50;88.22
50226;BME280;36113;50.742;6.432;2023-05-01T00:41:22;112741.81;;;-145.50;88.19
50226;BME280;36113;50.742;6.432;2023-05-01T00:43:48;112741.81;;;-145.50;87.83
50226;BME280;36113;50.742;6.432;2023-05-01T00:46:13;112741.81;;;-145.50;87.65
50226;BME280;36113;50.742;6.432;2023-05-01T00:48:38;112741.81;;;-145.50;87.15
50226;BME280;36113;50.742;6.432;2023-05-01T00:51:04;112741.81;;;-145.50;86.66
50226;BME280;36113;50.742;6.432;2023-05-01T00:53:34;112741.81;;;-145.50;86.17
50226;BME280;36113;50.742;6.432;2023-05-01T00:56:00;112741.81;;;-145.50;85.49
50226;BME280;36113;50.742;6.432;2023-05-01T00:58:26;112741.81;;;-145.50;85.13
50226;BME280;36113;50.742;6.432;2023-05-01T01:00:53;112741.81;;;-145.50;84.61
50226;BME280;36113;50.742;6.432;2023-05-01T01:03:19;112741.81;;;-145.50;84.18
50226;BME280;36113;50.742;6.432;2023-05-01T01:05:54;112741.81;;;-145.50;83.73
50226;BME280;36113;50.742;6.432;2023-05-01T01:08:37;112741.81;;;-145.50;83.26
50226;BME280;36113;50.742;6.432;2023-05-01T01:11:19;112741.81;;;-145.50;83.31
50226;BME280;36113;50.742;6.432;2023-05-01T01:13:59;112741.81;;;-145.50;82.84
50226;BME280;36113;50.742;6.432;2023-05-01T01:17:03;112741.81;;;-145.50;82.95
50226;BME280;36113;50.742;6.432;2023-05-01T01:22:42;112741.81;;;-145.50;82.46
50226;BME280;36113;50.742;6.432;2023-05-01T01:25:42;112741.81;;;-145.50;82.07
50226;BME280;36113;50.742;6.432;2023-05-01T01:28:15;112741.81;;;-145.50;81.59
50226;BME280;36113;50.742;6.432;2023-05-01T01:30:53;112741.81;;;-145.50;81.16
50226;BME280;36113;50.742;6.432;2023-05-01T01:33:40;112741.81;;;-145.50;80.81
50226;BME280;36113;50.742;6.432;2023-05-01T01:36:15;112741.81;;;-145.50;80.52
50226;BME280;36113;50.742;6.432;2023-05-01T01:38:45;112741.81;;;-145.50;80.15
50226;BME280;36113;50.742;6.432;2023-05-01T01:41:13;112741.81;;;-145.50;80.04
50226;BME280;36113;50.742;6.432;2023-05-01T01:43:45;112741.81;;;-145.50;79.77
50226;BME280;36113;50.742;6.432;2023-05-01T01:46:12;112741.81;;;-145.50;79.39
50226;BME280;36113;50.742;6.432;2023-05-01T01:48:42;112741.81;;;-145.50;79.06
50226;BME280;36113;50.742;6.432;2023-05-01T01:51:17;112741.81;;;-145.50;79.03
50226;BME280;36113;50.742;6.432;2023-05-01T01:53:45;112741.81;;;-145.50;78.48
50226;BME280;36113;50.742;6.432;2023-05-01T01:56:15;112741.81;;;-145.50;78.19
50226;BME280;36113;50.742;6.432;2023-05-01T01:58:42;112741.81;;;-145.50;77.94
50226;BME280;36113;50.742;6.432;2023-05-01T02:01:11;112741.81;;;-145.50;77.90
50226;BME280;36113;50.742;6.432;2023-05-01T02:03:38;112741.81;;;-145.50;77.91
50226;BME280;36113;50.742;6.432;2023-05-01T02:06:04;112741.81;;;-145.50;77.66
50226;BME280;36113;50.742;6.432;2023-05-01T02:08:31;112741.81;;;-145.50;77.42
50226;BME280;36113;50.742;6.432;2023-05-01T02:10:59;112741.81;;;-145.50;76.73
50226;BME280;36113;50.742;6.432;2023-05-01T02:13:28;112741.81;;;-145.50;76.30
50226;BME280;36113;50.742;6.432;2023-05-01T02:15:57;112741.81;;;-145.50;75.71
50226;BME280;36113;50.742;6.432;2023-05-01T02:18:27;112741.81;;;-145.50;75.56
50226;BME280;36113;50.742;6.432;2023-05-01T02:20:54;112741.81;;;-145.50;75.81
50226;BME280;36113;50.742;6.432;2023-05-01T02:23:21;112741.81;;;-145.50;75.41
50226;BME280;36113;50.742;6.432;2023-05-01T02:25:49;112741.81;;;-145.50;75.18
50226;BME280;36113;50.742;6.432;2023-05-01T02:28:20;112741.81;;;-145.50;74.78
50226;BME280;36113;50.742;6.432;2023-05-01T02:30:47;112741.81;;;-145.50;74.49
50226;BME280;36113;50.742;6.432;2023-05-01T02:33:12;112741.81;;;-145.50;74.14
50226;BME280;36113;50.742;6.432;2023-05-01T02:35:42;112741.81;;;-145.50;74.00
50226;BME280;36113;50.742;6.432;2023-05-01T02:38:14;112741.81;;;-145.50;73.70
50226;BME280;36113;50.742;6.432;2023-05-01T02:40:41;112741.81;;;-145.50;73.22
50226;BME280;36113;50.742;6.432;2023-05-01T02:43:09;112741.81;;;-145.50;73.50
50226;BME280;36113;50.742;6.432;2023-05-01T02:45:37;112741.81;;;-145.50;73.88
50226;BME280;36113;50.742;6.432;2023-05-01T02:48:05;112741.81;;;-145.50;73.95
50226;BME280;36113;50.742;6.432;2023-05-01T02:50:32;112741.81;;;-145.50;74.19
50226;BME280;36113;50.742;6.432;2023-05-01T02:52:59;112741.81;;;-145.50;73.80
50226;BME280;36113;50.742;6.432;2023-05-01T02:55:25;112741.81;;;-145.50;73.89
50226;BME280;36113;50.742;6.432;2023-05-01T02:57:51;112741.81;;;-145.50;74.12
50226;BME280;36113;50.742;6.432;2023-05-01T03:00:16;112741.81;;;-145.50;74.43
50226;BME280;36113;50.742;6.432;2023-05-01T03:02:43;112741.81;;;-145.50;74.32
50226;BME280;36113;50.742;6.432;2023-05-01T03:05:08;112741.81;;;-145.50;74.36
50226;BME280;36113;50.742;6.432;2023-05-01T03:07:34;112741.81;;;-145.50;74.33
50226;BME280;36113;50.742;6.432;2023-05-01T03:10:03;112741.81;;;-145.50;74.63
50226;BME280;36113;50.742;6.432;2023-05-01T03:12:29;112741.81;;;-145.50;75.24
50226;BME280;36113;50.742;6.432;2023-05-01T03:14:55;112741.81;;;-145.50;74.55
50226;BME280;36113;50.742;6.432;2023-05-01T03:17:20;112741.81;;;-145.50;73.62
50226;BME280;36113;50.742;6.432;2023-05-01T03:19:46;112741.81;;;-145.50;73.74
50226;BME280;36113;50.742;6.432;2023-05-01T03:22:13;112741.81;;;-145.50;73.19
50226;BME280;36113;50.742;6.432;2023-05-01T03:24:39;112741.81;;;-145.50;72.44
50226;BME280;36113;50.742;6.432;2023-05-01T03:27:04;112741.81;;;-145.50;72.07
50226;BME280;36113;50.742;6.432;2023-05-01T03:29:32;112741.81;;;-145.50;71.52
50226;BME280;36113;50.742;6.432;2023-05-01T03:31:58;112741.81;;;-145.50;71.27
50226;BME280;36113;50.742;6.432;2023-05-01T03:34:23;112741.81;;;-145.50;70.97
50226;BME280;36113;50.742;6.432;2023-05-01T03:36:48;112741.81;;;-145.50;70.68
50226;BME280;36113;50.742;6.432;2023-05-01T03:39:14;112741.81;;;-145.50;70.62
50226;BME280;36113;50.742;6.432;2023-05-01T03:41:39;112741.81;;;-145.50;70.41
50226;BME280;36113;50.742;6.432;2023-05-01T03:44:05;112741.81;;;-145.50;70.48
50226;BME280;36113;50.742;6.432;2023-05-01T03:46:30;112741.81;;;-145.50;70.12
50226;BME280;36113;50.742;6.432;2023-05-01T03:48:55;112741.81;;;-145.50;69.73
50226;BME280;36113;50.742;6.432;2023-05-01T03:51:21;112741.81;;;-145.50;69.65
50226;BME280;36113;50.742;6.432;2023-05-01T03:53:48;112741.81;;;-145.50;69.50
50226;BME280;36113;50.742;6.432;2023-05-01T03:56:13;112741.81;;;-145.50;68.96
50226;BME280;36113;50.742;6.432;2023-05-01T03:58:38;112741.81;;;-145.50;68.72
50226;BME280;36113;50.742;6.432;2023-05-01T04:01:03;112741.81;;;-145.50;68.76
50226;BME280;36113;50.742;6.432;2023-05-01T04:03:29;112741.81;;;-145.50;68.54
50226;BME280;36113;50.742;6.432;2023-05-01T04:05:54;112741.81;;;-145.50;68.31
50226;BME280;36113;50.742;6.432;2023-05-01T04:08:20;112741.81;;;-145.50;68.40
50226;BME280;36113;50.742;6.432;2023-05-01T04:10:46;112741.81;;;-145.50;68.29
50226;BME280;36113;50.742;6.432;2023-05-01T04:13:11;112741.81;;;-145.50;67.78
50226;BME280;36113;50.742;6.432;2023-05-01T04:15:37;112741.81;;;-145.50;67.57
50226;BME280;36113;50.742;6.432;2023-05-01T04:18:03;112741.81;;;-145.50;67.36
50226;BME280;36113;50.742;6.432;2023-05-01T04:20:28;112741.81;;;-145.50;67.21
50226;BME280;36113;50.742;6.432;2023-05-01T04:22:53;112741.81;;;-145.50;67.45
50226;BME280;36113;50.742;6.432;2023-05-01T04:25:19;112741.81;;;-145.50;67.34
50226;BME280;36113;50.742;6.432;2023-05-01T04:27:44;112741.81;;;-145.50;66.68
50226;BME280;36113;50.742;6.432;2023-05-01T04:30:10;112741.81;;;-145.50;66.39
50226;BME280;36113;50.742;6.432;2023-05-01T04:32:35;112741.81;;;-145.50;65.87
50226;BME280;36113;50.742;6.432;2023-05-01T04:35:01;112741.81;;;-145.50;65.31
50226;BME280;36113;50.742;6.432;2023-05-01T04:37:26;112741.81;;;-145.50;64.70
50226;BME280;36113;50.742;6.432;2023-05-01T04:39:51;112741.81;;;-145.50;64.21
50226;BME280;36113;50.742;6.432;2023-05-01T04:42:17;112741.81;;;-145.50;63.70
50226;BME280;36113;50.742;6.432;2023-05-01T04:44:44;112741.81;;;-145.50;63.22
50226;BME280;36113;50.742;6.432;2023-05-01T04:47:09;112741.81;;;-145.50;62.66
50226;BME280;36113;50.742;6.432;2023-05-01T04:49:35;112741.81;;;-145.50;62.74
50226;BME280;36113;50.742;6.432;2023-05-01T04:52:01;112741.81;;;-145.50;62.94
50226;BME280;36113;50.742;6.432;2023-05-01T04:54:26;112741.81;;;-145.50;62.57
50226;BME280;36113;50.742;6.432;2023-05-01T04:56:52;112741.81;;;-145.50;62.23
50226;BME280;36113;50.742;6.432;2023-05-01T04:59:17;112741.81;;;-145.50;61.84
50226;BME280;36113;50.742;6.432;2023-05-01T05:01:42;112741.81;;;-145.50;61.61
50226;BME280;36113;50.742;6.432;2023-05-01T05:04:08;112741.81;;;-145.50;61.27
50226;BME280;36113;50.742;6.432;2023-05-01T05:06:34;112741.81;;;-145.50;61.00
50226;BME280;36113;50.742;6.432;2023-05-01T05:08:59;112741.81;;;-145.50;61.13
50226;BME280;36113;50.742;6.432;2023-05-01T05:11:24;112741.81;;;-145.50;60.44
50226;BME280;36113;50.742;6.432;2023-05-01T05:13:51;112741.81;;;-145.50;60.69
50226;BME280;36113;50.742;6.432;2023-05-01T05:16:16;112741.81;;;-145.50;59.93
50226;BME280;36113;50.742;6.432;2023-05-01T05:18:41;112741.81;;;-145.50;59.90
50226;BME280;36113;50.742;6.432;2023-05-01T05:21:07;112741.81;;;-145.50;59.62
50226;BME280;36113;50.742;6.432;2023-05-01T05:23:34;112741.81;;;-145.50;59.41
50226;BME280;36113;50.742;6.432;2023-05-01T05:26:00;112741.81;;;-145.50;59.22
50226;BME280;36113;50.742;6.432;2023-05-01T05:28:29;112741.81;;;-145.50;59.13
50226;BME280;36113;50.742;6.432;2023-05-01T05:30:57;112741.81;;;-145.50;59.36
50226;BME280;36113;50.742;6.432;2023-05-01T05:33:22;112741.81;;;-145.50;59.50
50226;BME280;36113;50.742;6.432;2023-05-01T05:35:49;112741.81;;;-145.50;59.26
50226;BME280;36113;50.742;6.432;2023-05-01T05:38:15;112741.81;;;-145.50;59.32
50226;BME280;36113;50.742;6.432;2023-05-01T05:40:40;112741.81;;;-145.50;59.32
50226;BME280;36113;50.742;6.432;2023-05-01T05:43:06;112741.81;;;-145.50;59.09
50226;BME280;36113;50.742;6.432;2023-05-01T05:45:34;112741.81;;;-145.50;58.69
50226;BME280;36113;50.742;6.432;2023-05-01T05:47:59;112741.81;;;-145.50;58.39
50226;BME280;36113;50.742;6.432;2023-05-01T05:50:24;112741.81;;;-145.50;57.90
50226;BME280;36113;50.742;6.432;2023-05-01T05:52:50;112741.81;;;-145.50;57.75
50226;BME280;36113;50.742;6.432;2023-05-01T05:55:15;112741.81;;;-145.50;57.98
50226;BME280;36113;50.742;6.432;2023-05-01T05:57:41;112741.81;;;-145.50;58.13
50226;BME280;36113;50.742;6.432;2023-05-01T06:00:07;112741.81;;;-145.50;58.23
50226;BME280;36113;50.742;6.432;2023-05-01T06:02:34;112741.81;;;-145.50;57.62
50226;BME280;36113;50.742;6.432;2023-05-01T06:05:00;112741.81;;;-145.50;57.25
50226;BME280;36113;50.742;6.432;2023-05-01T06:07:25;112741.81;;;-145.50;57.77
50226;BME280;36113;50.742;6.432;2023-05-01T06:09:50;112741.81;;;-145.50;57.26
50226;BME280;36113;50.742;6.432;2023-05-01T06:12:16;112741.81;;;-145.50;56.70
50226;BME280;36113;50.742;6.432;2023-05-01T06:14:41;112741.81;;;-145.50;55.48
50226;BME280;36113;50.742;6.432;2023-05-01T06:17:07;112741.81;;;-145.50;61.49
50226;BME280;36113;50.742;6.432;2023-05-01T06:19:32;112741.81;;;-145.50;69.49
50226;BME280;36113;50.742;6.432;2023-05-01T06:21:58;112741.81;;;-145.50;72.84
50226;BME280;36113;50.742;6.432;2023-05-01T06:24:23;112741.81;;;-145.50;75.19
50226;BME280;36113;50.742;6.432;2023-05-01T06:26:49;112741.81;;;-145.50;77.08
50226;BME280;36113;50.742;6.432;2023-05-01T06:29:14;112741.81;;;-145.50;78.07
50226;BME280;36113;50.742;6.432;2023-05-01T06:31:40;112741.81;;;-145.50;78.44
50226;BME280;36113;50.742;6.432;2023-05-01T06:34:06;112741.81;;;-145.50;79.56
50226;BME280;36113;50.742;6.432;2023-05-01T06:36:31;112741.81;;;-145.50;80.61
50226;BME280;36113;50.742;6.432;2023-05-01T06:38:56;112741.81;;;-145.50;81.35
50226;BME280;36113;50.742;6.432;2023-05-01T06:41:22;112741.81;;;-145.50;81.44
50226;BME280;36113;50.742;6.432;2023-05-01T06:43:47;112741.81;;;-145.50;81.15
50226;BME280;36113;50.742;6.432;2023-05-01T06:46:12;112741.81;;;-145.50;80.26
50226;BME280;36113;50.742;6.432;2023-05-01T06:48:38;112741.81;;;-145.50;78.46
50226;BME280;36113;50.742;6.432;2023-05-01T06:51:03;112741.81;;;-145.50;77.58
50226;BME280;36113;50.742;6.432;2023-05-01T06:53:29;112741.81;;;-145.50;77.90
50226;BME280;36113;50.742;6.432;2023-05-01T06:55:54;112741.81;;;-145.50;78.33
50226;BME280;36113;50.742;6.432;2023-05-01T06:58:20;112741.81;;;-145.50;77.98
50226;BME280;36113;50.742;6.432;2023-05-01T07:00:45;112741.81;;;-145.50;75.42
50226;BME280;36113;50.742;6.432;2023-05-01T07:03:10;112741.81;;;-145.50;75.69
50226;BME280;36113;50.742;6.432;2023-05-01T07:05:36;112741.81;;;-145.50;75.94
50226;BME280;36113;50.742;6.432;2023-05-01T07:08:01;112741.81;;;-145.50;76.37
50226;BME280;36113;50.742;6.432;2023-05-01T07:10:26;112741.81;;;-145.50;76.83
50226;BME280;36113;50.742;6.432;2023-05-01T07:12:53;112741.81;;;-145.50;76.73
50226;BME280;36113;50.742;6.432;2023-05-01T07:15:18;112741.81;;;-145.50;75.74
50226;BME280;36113;50.742;6.432;2023-05-01T07:17:44;112741.81;;;-145.50;73.55
50226;BME280;36113;50.742;6.432;2023-05-01T07:20:10;112741.81;;;-145.50;72.47
50226;BME280;36113;50.742;6.432;2023-05-01T07:22:36;112741.81;;;-145.50;71.46
50226;BME280;36113;50.742;6.432;2023-05-01T07:25:01;112741.81;;;-145.50;69.53
50226;BME280;36113;50.742;6.432;2023-05-01T07:27:27;112741.81;;;-145.50;65.26
50226;BME280;36113;50.742;6.432;2023-05-01T07:29:54;112741.81;;;-145.50;63.88
50226;BME280;36113;50.742;6.432;2023-05-01T07:32:20;112741.81;;;-145.50;62.63
50226;BME280;36113;50.742;6.432;2023-05-01T07:34:45;112741.81;;;-145.50;62.56
50226;BME280;36113;50.742;6.432;2023-05-01T07:37:10;112741.81;;;-145.50;62.58
50226;BME280;36113;50.742;6.432;2023-05-01T07:39:36;112741.81;;;-145.50;63.34
50226;BME280;36113;50.742;6.432;2023-05-01T07:42:01;112741.81;;;-145.50;62.75
50226;BME280;36113;50.742;6.432;2023-05-01T07:44:26;112741.81;;;-145.50;64.21
50226;BME280;36113;50.742;6.432;2023-05-01T07:46:52;112741.81;;;-145.50;64.17
50226;BME280;36113;50.742;6.432;2023-05-01T07:49:17;112741.81;;;-145.50;63.75
50226;BME280;36113;50.742;6.432;2023-05-01T07:51:42;112741.81;;;-145.50;65.03
50226;BME280;36113;50.742;6.432;2023-05-01T07:54:09;112741.81;;;-145.50;62.46
50226;BME280;36113;50.742;6.432;2023-05-01T07:56:34;112741.81;;;-145.50;60.21
50226;BME280;36113;50.742;6.432;2023-05-01T07:59:00;112741.81;;;-145.50;62.58
50226;BME280;36113;50.742;6.432;2023-05-01T08:01:25;112741.81;;;-145.50;62.67
50226;BME280;36113;50.742;6.432;2023-05-01T08:03:50;112741.81;;;-145.50;65.51
50226;BME280;36113;50.742;6.432;2023-05-01T08:06:16;112741.81;;;-145.50;67.14
50226;BME280;36113;50.742;6.432;2023-05-01T08:08:41;112741.81;;;-145.50;64.45
50226;BME280;36113;50.742;6.432;2023-05-01T08:11:07;112741.81;;;-145.50;61.71
50226;BME280;36113;50.742;6.432;2023-05-01T08:13:33;112741.81;;;-145.50;61.67
50226;BME280;36113;50.742;6.432;2023-05-01T08:16:01;112741.81;;;-145.50;61.59
50226;BME280;36113;50.742;6.432;2023-05-01T08:18:27;112741.81;;;-145.50;63.63
50226;BME280;36113;50.742;6.432;2023-05-01T08:20:53;112741.81;;;-145.50;63.44
50226;BME280;36113;50.742;6.432;2023-05-01T08:23:18;112741.81;;;-145.50;65.66
50226;BME280;36113;50.742;6.432;2023-05-01T08:25:43;112741.81;;;-145.50;65.67
50226;BME280;36113;50.742;6.432;2023-05-01T08:28:15;112741.81;;;-145.50;65.18
50226;BME280;36113;50.742;6.432;2023-05-01T08:30:40;112741.81;;;-145.50;66.99
50226;BME280;36113;50.742;6.432;2023-05-01T08:33:06;112741.81;;;-145.50;65.04
50226;BME280;36113;50.742;6.432;2023-05-01T08:35:31;112741.81;;;-145.50;65.59
50226;BME280;36113;50.742;6.432;2023-05-01T08:37:56;112741.81;;;-145.50;64.53
50226;BME280;36113;50.742;6.432;2023-05-01T08:40:22;112741.81;;;-145.50;64.29
50226;BME280;36113;50.742;6.432;2023-05-01T08:42:50;112741.81;;;-145.50;63.96
50226;BME280;36113;50.742;6.432;2023-05-01T08:45:17;112741.81;;;-145.50;65.33
50226;BME280;36113;50.742;6.432;2023-05-01T08:47:44;112741.81;;;-145.50;64.48
50226;BME280;36113;50.742;6.432;2023-05-01T08:50:10;112741.81;;;-145.50;63.17
50226;BME280;36113;50.742;6.432;2023-05-01T08:52:39;112741.81;;;-145.50;63.27
50226;BME280;36113;50.742;6.432;2023-05-01T08:55:07;112741.81;;;-145.50;63.61
50226;BME280;36113;50.742;6.432;2023-05-01T08:57:35;112741.81;;;-145.50;61.18
50226;BME280;36113;50.742;6.432;2023-05-01T09:00:02;112741.81;;;-145.50;62.59
50226;BME280;36113;50.742;6.432;2023-05-01T09:02:29;112741.81;;;-145.50;62.00
50226;BME280;36113;50.742;6.432;2023-05-01T09:04:59;112741.81;;;-145.50;61.25
50226;BME280;36113;50.742;6.432;2023-05-01T09:07:26;112741.81;;;-145.50;60.53
50226;BME280;36113;50.742;6.432;2023-05-01T09:09:51;112741.81;;;-145.50;62.44
50226;BME280;36113;50.742;6.432;2023-05-01T09:12:23;112741.81;;;-145.50;64.32
50226;BME280;36113;50.742;6.432;2023-05-01T09:14:58;112741.81;;;-145.50;62.03
50226;BME280;36113;50.742;6.432;2023-05-01T09:17:23;112741.81;;;-145.50;60.55
50226;BME280;36113;50.742;6.432;2023-05-01T09:19:49;112741.81;;;-145.50;61.46
50226;BME280;36113;50.742;6.432;2023-05-01T09:22:16;112741.81;;;-145.50;60.64
50226;BME280;36113;50.742;6.432;2023-05-01T09:24:43;112741.81;;;-145.50;61.06
50226;BME280;36113;50.742;6.432;2023-05-01T09:27:08;112741.81;;;-145.50;62.02
50226;BME280;36113;50.742;6.432;2023-05-01T09:29:40;112741.81;;;-145.50;59.52
50226;BME280;36113;50.742;6.432;2023-05-01T09:32:19;112741.81;;;-145.50;62.55
50226;BME280;36113;50.742;6.432;2023-05-01T09:34:46;112741.81;;;-145.50;62.60
50226;BME280;36113;50.742;6.432;2023-05-01T09:37:13;112741.81;;;-145.50;61.30
50226;BME280;36113;50.742;6.432;2023-05-01T09:39:38;112741.81;;;-145.50;61.13
50226;BME280;36113;50.742;6.432;2023-05-01T09:42:04;112741.81;;;-145.50;63.07
50226;BME280;36113;50.742;6.432;2023-05-01T09:44:30;112741.81;;;-145.50;63.48
50226;BME280;36113;50.742;6.432;2023-05-01T09:46:55;112741.81;;;-145.50;63.94
50226;BME280;36113;50.742;6.432;2023-05-01T09:49:44;112741.81;;;-145.50;62.50
50226;BME280;36113;50.742;6.432;2023-05-01T09:52:11;112741.81;;;-145.50;64.12
50226;BME280;36113;50.742;6.432;2023-05-01T09:54:37;112741.81;;;-145.50;64.77
50226;BME280;36113;50.742;6.432;2023-05-01T09:57:02;112741.81;;;-145.50;64.50
50226;BME280;36113;50.742;6.432;2023-05-01T09:59:28;112741.81;;;-145.50;62.20
50226;BME280;36113;50.742;6.432;2023-05-01T10:01:56;112741.81;;;-145.50;60.73
50226;BME280;36113;50.742;6.432;2023-05-01T10:04:31;112741.81;;;-145.50;56.33
50226;BME280;36113;50.742;6.432;2023-05-01T10:07:11;112741.81;;;-145.50;56.05
50226;BME280;36113;50.742;6.432;2023-05-01T10:09:40;112741.81;;;-145.50;55.10
50226;BME280;36113;50.742;6.432;2023-05-01T10:12:06;112741.81;;;-145.50;54.46
50226;BME280;36113;50.742;6.432;2023-05-01T10:14:31;112741.81;;;-145.50;58.13
50226;BME280;36113;50.742;6.432;2023-05-01T10:17:15;112741.81;;;-145.50;59.27
50226;BME280;36113;50.742;6.432;2023-05-01T10:19:42;112741.81;;;-145.50;61.08
50226;BME280;36113;50.742;6.432;2023-05-01T10:22:07;112741.81;;;-145.50;57.06
50226;BME280;36113;50.742;6.432;2023-05-01T10:24:32;112741.81;;;-145.50;59.62
50226;BME280;36113;50.742;6.432;2023-05-01T10:26:58;112741.81;;;-145.50;63.25
50226;BME280;36113;50.742;6.432;2023-05-01T10:29:25;112741.81;;;-145.50;65.32
50226;BME280;36113;50.742;6.432;2023-05-01T10:31:51;112741.81;;;-145.50;67.19
50226;BME280;36113;50.742;6.432;2023-05-01T10:34:18;112741.81;;;-145.50;66.65
50226;BME280;36113;50.742;6.432;2023-05-01T10:37:08;112741.81;;;-145.50;65.37
50226;BME280;36113;50.742;6.432;2023-05-01T10:39:37;112741.81;;;-145.50;63.45
50226;BME280;36113;50.742;6.432;2023-05-01T10:42:09;112741.81;;;-145.50;56.73
50226;BME280;36113;50.742;6.432;2023-05-01T10:44:38;112741.81;;;-145.50;53.31
50226;BME280;36113;50.742;6.432;2023-05-01T10:47:50;112741.81;;;-145.50;54.20
50226;BME280;36113;50.742;6.432;2023-05-01T10:52:28;112741.81;;;-145.50;59.98
50226;BME280;36113;50.742;6.432;2023-05-01T10:57:58;112741.81;;;-145.50;59.59
50226;BME280;36113;50.742;6.432;2023-05-01T11:00:23;112741.81;;;-145.50;54.90
50226;BME280;36113;50.742;6.432;2023-05-01T11:02:49;112741.81;;;-145.50;48.91
50226;BME280;36113;50.742;6.432;2023-05-01T11:05:14;112741.81;;;-145.50;51.10
50226;BME280;36113;50.742;6.432;2023-05-01T11:07:40;112741.81;;;-145.50;55.77
50226;BME280;36113;50.742;6.432;2023-05-01T11:10:24;112741.81;;;-145.50;57.93
50226;BME280;36113;50.742;6.432;2023-05-01T11:12:50;112741.81;;;-145.50;57.86
50226;BME280;36113;50.742;6.432;2023-05-01T11:15:26;112741.81;;;-145.50;59.08
50226;BME280;36113;50.742;6.432;2023-05-01T11:17:51;112741.81;;;-145.50;56.67
50226;BME280;36113;50.742;6.432;2023-05-01T11:22:50;112741.81;;;-145.50;51.09
50226;BME280;36113;50.742;6.432;2023-05-01T11:25:20;112741.81;;;-145.50;51.39
50226;BME280;36113;50.742;6.432;2023-05-01T11:27:52;112741.81;;;-145.50;50.56
50226;BME280;36113;50.742;6.432;2023-05-01T11:30:18;112741.81;;;-145.50;50.17
50226;BME280;36113;50.742;6.432;2023-05-01T11:32:45;112741.81;;;-145.50;50.99
50226;BME280;36113;50.742;6.432;2023-05-01T11:35:27;112741.81;;;-145.50;52.79
50226;BME280;36113;50.742;6.432;2023-05-01T11:37:52;112741.81;;;-145.50;53.59
50226;BME280;36113;50.742;6.432;2023-05-01T11:40:28;112741.81;;;-145.50;51.89
50226;BME280;36113;50.742;6.432;2023-05-01T11:43:07;112741.81;;;-145.50;53.71
50226;BME280;36113;50.742;6.432;2023-05-01T11:45:36;112741.81;;;-145.50;53.25
50226;BME280;36113;50.742;6.432;2023-05-01T11:48:01;112741.81;;;-145.50;54.90
50226;BME280;36113;50.742;6.432;2023-05-01T11:50:35;112741.81;;;-145.50;56.66
50226;BME280;36113;50.742;6.432;2023-05-01T11:53:05;112741.81;;;-145.50;59.10
50226;BME280;36113;50.742;6.432;2023-05-01T11:55:35;112741.81;;;-145.50;61.70
50226;BME280;36113;50.742;6.432;2023-05-01T11:58:01;112741.81;;;-145.50;69.26
50226;BME280;36113;50.742;6.432;2023-05-01T12:03:03;112741.81;;;-145.50;75.57
50226;BME280;36113;50.742;6.432;2023-05-01T12:05:30;112741.81;;;-145.50;72.99
50226;BME280;36113;50.742;6.432;2023-05-01T12:08:16;112741.81;;;-145.50;71.65
50226;BME280;36113;50.742;6.432;2023-05-01T12:10:49;112741.81;;;-145.50;73.16
50226;BME280;36113;50.742;6.432;2023-05-01T12:13:16;112741.81;;;-145.50;73.85
50226;BME280;36113;50.742;6.432;2023-05-01T12:15:44;112741.81;;;-145.50;75.65
50226;BME280;36113;50.742;6.432;2023-05-01T12:18:11;112741.81;;;-145.50;77.24
50226;BME280;36113;50.742;6.432;2023-05-01T12:20:38;112741.81;;;-145.50;79.65
50226;BME280;36113;50.742;6.432;2023-05-01T12:23:05;112741.81;;;-145.50;84.53
50226;BME280;36113;50.742;6.432;2023-05-01T12:25:32;112741.81;;;-145.50;86.21
50226;BME280;36113;50.742;6.432;2023-05-01T12:27:59;112741.81;;;-145.50;84.34
50226;BME280;36113;50.742;6.432;2023-05-01T12:30:26;112741.81;;;-145.50;86.28
50226;BME280;36113;50.742;6.432;2023-05-01T12:32:51;112741.81;;;-145.50;87.94
50226;BME280;36113;50.742;6.432;2023-05-01T12:35:17;112741.81;;;-145.50;90.05
50226;BME280;36113;50.742;6.432;2023-05-01T12:37:42;112741.81;;;-145.50;90.72
50226;BME280;36113;50.742;6.432;2023-05-01T12:40:14;112741.81;;;-145.50;90.90
50226;BME280;36113;50.742;6.432;2023-05-01T12:42:40;112741.81;;;-145.50;91.71
50226;BME280;36113;50.742;6.432;2023-05-01T12:45:06;112741.81;;;-145.50;91.88